Terminal Aerodrome Forecast
Issued by NWS Brownsville, TX

Home | Current Version | Previous Version | Text Only | Print | Product List | Glossary On
Versions: 1 2 3 4 5 6 7 8 9 10 11 12 13 14 15
000
FTUS44 KBRO 291700
TAFHRL
TAF
KHRL 291725Z 2918/3018 17013G25KT P6SM SCT060
     FM292200 15015G25KT P6SM SKC
     FM300300 13005KT P6SM SKC
     FM301400 17011KT P6SM SCT030=

USA.gov is the U.S. government's official web portal to all federal, state and local government web resources and services.